createdAt,value
2024-01-20T00:00:33.698Z,40.05
2024-01-20T00:03:05.834Z,33.90
2024-01-20T00:05:38.032Z,36.78
2024-01-20T00:08:10.304Z,29.25
2024-01-20T00:10:42.531Z,33.55
2024-01-20T00:13:15.384Z,49.45
2024-01-20T00:15:47.670Z,40.40
2024-01-20T00:18:20.826Z,41.25
2024-01-20T00:20:53.254Z,35.72
2024-01-20T00:23:25.576Z,43.47
2024-01-20T00:25:57.772Z,39.38
2024-01-20T00:28:30.053Z,37.60
2024-01-20T00:31:02.255Z,43.85
2024-01-20T00:33:34.835Z,39.35
2024-01-20T00:36:07.310Z,35.22
2024-01-20T00:38:40.740Z,45.20
2024-01-20T00:41:13.105Z,42.22
2024-01-20T00:43:45.371Z,39.97
2024-01-20T00:46:17.513Z,53.65
2024-01-20T00:48:49.695Z,40.30
2024-01-20T00:51:21.850Z,46.50
2024-01-20T00:53:54.034Z,55.97
2024-01-20T00:56:26.269Z,44.10
2024-01-20T00:58:58.509Z,41.75
2024-01-20T01:01:30.803Z,49.65
2024-01-20T01:04:03.031Z,49.63
2024-01-20T01:06:35.352Z,56.40
2024-01-20T01:09:07.532Z,52.83
2024-01-20T01:11:40.071Z,37.95
2024-01-20T01:14:12.366Z,45.35
2024-01-20T01:16:44.585Z,56.15
2024-01-20T01:19:17.184Z,43.97
2024-01-20T01:21:49.381Z,51.10
2024-01-20T01:24:22.544Z,50.58
2024-01-20T01:26:54.759Z,49.78
2024-01-20T01:29:27.143Z,52.45
2024-01-20T01:31:59.645Z,51.30
2024-01-20T01:34:31.875Z,49.08
2024-01-20T01:37:04.134Z,46.65
2024-01-20T01:39:36.308Z,53.83
2024-01-20T01:42:08.891Z,49.58
2024-01-20T01:44:41.138Z,45.63
2024-01-20T01:47:13.556Z,55.58
2024-01-20T01:49:45.750Z,58.10
2024-01-20T01:52:20.033Z,52.00
2024-01-20T01:54:53.254Z,59.55
2024-01-20T01:57:27.320Z,50.33
2024-01-20T02:00:00.335Z,60.75
2024-01-20T02:02:32.660Z,58.30
2024-01-20T02:05:05.181Z,52.38
2024-01-20T02:07:39.460Z,56.35
2024-01-20T02:10:12.831Z,52.47
2024-01-20T02:12:45.099Z,47.35
2024-01-20T02:15:18.811Z,53.80
2024-01-20T02:17:56.260Z,51.25
2024-01-20T02:20:28.689Z,60.42
2024-01-20T02:23:00.893Z,54.28
2024-01-20T02:25:33.054Z,60.97
2024-01-20T02:28:05.470Z,59.55
2024-01-20T02:30:37.608Z,56.25
2024-01-20T02:33:09.947Z,43.83
2024-01-20T02:35:42.196Z,55.65
2024-01-20T02:38:14.378Z,54.53
2024-01-20T02:40:46.536Z,50.20
2024-01-20T02:43:18.668Z,53.10
2024-01-20T02:45:50.802Z,54.78
2024-01-20T02:48:24.565Z,59.65
2024-01-20T02:50:56.800Z,50.72
2024-01-20T02:53:29.523Z,58.03
2024-01-20T02:56:01.683Z,57.13
2024-01-20T02:58:33.787Z,57.60
2024-01-20T03:01:08.347Z,53.53
2024-01-20T03:03:40.628Z,64.68
2024-01-20T03:06:13.305Z,62.53
2024-01-20T03:08:45.439Z,52.90
2024-01-20T03:11:17.813Z,63.38
2024-01-20T03:13:49.919Z,58.60
2024-01-20T03:16:22.209Z,64.75
2024-01-20T03:18:54.382Z,58.97
2024-01-20T03:21:26.626Z,68.93
2024-01-20T03:23:59.012Z,72.70
2024-01-20T03:26:31.303Z,64.40
2024-01-20T03:29:03.876Z,73.15
2024-01-20T03:31:36.012Z,67.43
2024-01-20T03:34:08.196Z,62.30
2024-01-20T03:36:40.623Z,61.95
2024-01-20T03:39:12.946Z,62.90
2024-01-20T03:41:45.605Z,56.22
2024-01-20T03:44:17.765Z,60.08
2024-01-20T03:46:49.917Z,55.22
2024-01-20T03:49:22.170Z,63.75
2024-01-20T03:51:54.507Z,60.85
2024-01-20T03:54:26.732Z,55.72
2024-01-20T03:56:59.025Z,53.42
2024-01-20T03:59:31.255Z,59.80
2024-01-20T04:02:03.461Z,55.13
2024-01-20T04:04:38.925Z,56.72
2024-01-20T04:07:11.839Z,63.13
2024-01-20T04:09:44.086Z,59.65
2024-01-20T04:12:16.249Z,63.42
2024-01-20T04:14:48.418Z,61.10
2024-01-20T04:17:20.601Z,54.47
2024-01-20T04:19:52.707Z,61.50
2024-01-20T04:22:25.000Z,59.40
2024-01-20T04:24:57.121Z,61.78
2024-01-20T04:27:29.406Z,57.90
2024-01-20T04:30:01.580Z,59.78
2024-01-20T04:32:33.792Z,72.07
2024-01-20T04:35:07.259Z,61.22
2024-01-20T04:37:40.516Z,54.72
2024-01-20T04:40:12.773Z,66.60
2024-01-20T04:42:44.901Z,58.03
2024-01-20T04:45:17.162Z,64.85
2024-01-20T04:47:49.346Z,59.10
2024-01-20T04:50:21.502Z,55.75
2024-01-20T04:52:53.653Z,66.20
2024-01-20T04:55:25.777Z,66.82
2024-01-20T04:57:58.009Z,72.82
2024-01-20T05:00:30.221Z,74.70
2024-01-20T05:03:02.652Z,75.47
2024-01-20T05:05:34.914Z,74.78
2024-01-20T05:08:07.264Z,66.95
2024-01-20T05:10:39.328Z,78.50
2024-01-20T05:13:11.429Z,78.47
2024-01-20T05:15:43.604Z,66.78
2024-01-20T05:18:15.938Z,80.30
2024-01-20T05:20:48.177Z,86.07
2024-01-20T05:23:20.380Z,81.68
2024-01-20T05:25:52.458Z,83.60
2024-01-20T05:28:24.548Z,69.72
2024-01-20T05:30:56.662Z,83.40
2024-01-20T05:33:28.867Z,78.25
2024-01-20T05:36:01.119Z,81.25
2024-01-20T05:38:33.245Z,83.97
2024-01-20T05:41:05.421Z,79.00
2024-01-20T05:43:37.552Z,80.35
2024-01-20T05:46:09.659Z,77.88
2024-01-20T05:48:41.845Z,81.38
2024-01-20T05:51:14.498Z,79.10
2024-01-20T05:53:47.363Z,87.55
2024-01-20T05:56:21.700Z,90.60
2024-01-20T05:58:54.215Z,83.90
2024-01-20T06:01:26.333Z,78.55
2024-01-20T06:03:58.714Z,83.13
2024-01-20T06:06:31.120Z,83.40
2024-01-20T06:09:04.090Z,82.65
2024-01-20T06:11:36.212Z,74.70
2024-01-20T06:14:09.027Z,81.03
2024-01-20T06:16:42.715Z,86.20
2024-01-20T06:19:15.548Z,81.85
2024-01-20T06:21:47.723Z,91.00
2024-01-20T06:24:19.869Z,76.30
2024-01-20T06:26:52.095Z,79.80
2024-01-20T06:29:24.199Z,82.95
2024-01-20T06:31:56.320Z,77.95
2024-01-20T06:34:28.747Z,81.28
2024-01-20T06:37:01.019Z,83.20
2024-01-20T06:39:33.208Z,91.63
2024-01-20T06:42:05.719Z,86.70
2024-01-20T06:44:37.817Z,93.72
2024-01-20T06:47:09.981Z,84.40
2024-01-20T06:49:42.634Z,87.82
2024-01-20T06:52:18.120Z,89.07
2024-01-20T06:54:50.473Z,88.20
2024-01-20T06:57:22.572Z,87.65
2024-01-20T06:59:55.585Z,101.88
2024-01-20T07:02:31.617Z,85.32
2024-01-20T07:05:06.150Z,97.10
2024-01-20T07:07:39.631Z,93.70
2024-01-20T07:10:12.577Z,92.30
2024-01-20T07:12:44.694Z,93.70
2024-01-20T07:15:16.954Z,83.32
2024-01-20T07:17:49.143Z,100.63
2024-01-20T07:20:21.674Z,94.75
2024-01-20T07:22:53.776Z,92.38
2024-01-20T07:25:25.986Z,101.03
2024-01-20T07:27:58.120Z,95.72
2024-01-20T07:30:30.289Z,92.35
2024-01-20T07:33:02.510Z,92.70
2024-01-20T07:35:34.859Z,95.95
2024-01-20T07:38:06.951Z,92.72
2024-01-20T07:40:39.116Z,92.93
2024-01-20T07:43:11.394Z,81.70
2024-01-20T07:45:43.667Z,96.53
2024-01-20T07:48:16.562Z,98.03
2024-01-20T07:50:49.690Z,103.63
2024-01-20T07:53:21.788Z,103.00
2024-01-20T07:55:54.027Z,92.80
2024-01-20T07:58:26.335Z,105.20
2024-01-20T08:00:58.593Z,83.60
2024-01-20T08:03:30.745Z,92.03
2024-01-20T08:06:03.677Z,76.10
2024-01-20T08:08:35.885Z,90.03
2024-01-20T08:11:08.015Z,78.30
2024-01-20T08:13:40.127Z,83.95
2024-01-20T08:16:12.218Z,84.70
2024-01-20T08:18:44.473Z,83.68
2024-01-20T08:21:20.634Z,82.93
2024-01-20T08:23:52.905Z,80.72
2024-01-20T08:26:25.111Z,84.03
2024-01-20T08:28:57.473Z,71.15
2024-01-20T08:31:29.768Z,84.10
2024-01-20T08:34:04.082Z,73.00
2024-01-20T08:36:36.354Z,80.80
2024-01-20T08:39:08.502Z,77.93
2024-01-20T08:41:40.612Z,73.32
2024-01-20T08:44:12.793Z,78.43
2024-01-20T08:46:46.741Z,67.70
2024-01-20T08:49:19.031Z,80.07
2024-01-20T08:51:51.228Z,74.63
2024-01-20T08:54:23.331Z,67.57
2024-01-20T08:56:55.465Z,73.95
2024-01-20T08:59:27.585Z,78.63
2024-01-20T09:01:59.696Z,63.05
2024-01-20T09:04:31.751Z,66.55
2024-01-20T09:07:04.149Z,74.40
2024-01-20T09:09:36.345Z,71.95
2024-01-20T09:12:08.961Z,61.65
2024-01-20T09:14:41.261Z,64.13
2024-01-20T09:17:13.407Z,73.70
2024-01-20T09:19:46.159Z,66.60
2024-01-20T09:22:18.995Z,66.28
2024-01-20T09:24:51.170Z,72.88
2024-01-20T09:27:24.887Z,74.93
2024-01-20T09:29:57.898Z,66.82
2024-01-20T09:32:32.350Z,61.00
2024-01-20T09:35:04.891Z,66.93
2024-01-20T09:37:40.239Z,76.40
2024-01-20T09:40:13.165Z,70.03
2024-01-20T09:42:45.687Z,70.25
2024-01-20T09:45:18.098Z,77.95
2024-01-20T09:47:50.518Z,68.97
2024-01-20T09:50:22.704Z,81.85
2024-01-20T09:52:59.698Z,65.57
2024-01-20T09:55:31.843Z,68.57
2024-01-20T09:58:05.583Z,61.78
2024-01-20T10:00:40.180Z,72.03
2024-01-20T10:03:13.853Z,65.60
2024-01-20T10:05:46.095Z,66.65
2024-01-20T10:08:18.253Z,62.00
2024-01-20T10:10:50.596Z,57.25
2024-01-20T10:13:22.720Z,60.38
2024-01-20T10:15:55.610Z,58.72
2024-01-20T10:18:28.919Z,70.00
2024-01-20T10:21:07.359Z,65.82
2024-01-20T10:23:40.237Z,53.03
2024-01-20T10:26:12.290Z,55.55
2024-01-20T10:28:45.222Z,50.83
2024-01-20T10:31:17.330Z,58.88
2024-01-20T10:33:52.647Z,59.60
2024-01-20T10:36:26.146Z,61.47
2024-01-20T10:39:06.004Z,60.92
2024-01-20T10:41:43.272Z,57.05
2024-01-20T10:44:17.878Z,54.92
2024-01-20T10:46:53.967Z,61.55
2024-01-20T10:49:26.316Z,64.05
2024-01-20T10:51:59.123Z,62.70
2024-01-20T10:54:32.222Z,59.17
2024-01-20T10:57:04.886Z,61.33
2024-01-20T10:59:43.089Z,54.78
2024-01-20T11:02:15.814Z,58.25
2024-01-20T11:04:48.002Z,58.95
2024-01-20T11:07:24.820Z,57.22
2024-01-20T11:10:01.274Z,58.40
2024-01-20T11:12:33.612Z,57.20
2024-01-20T11:15:12.869Z,65.00
2024-01-20T11:17:45.104Z,59.67
2024-01-20T11:20:17.333Z,55.20
2024-01-20T11:22:49.556Z,62.58
2024-01-20T11:25:24.504Z,65.32
2024-01-20T11:27:59.056Z,57.95
2024-01-20T11:30:35.967Z,52.53
2024-01-20T11:33:13.006Z,59.30
2024-01-20T11:35:45.274Z,55.72
2024-01-20T11:38:17.908Z,61.60
2024-01-20T11:41:03.455Z,63.80
2024-01-20T11:43:36.139Z,54.53
2024-01-20T11:46:08.300Z,58.50
2024-01-20T11:48:40.671Z,59.33
2024-01-20T11:51:13.119Z,52.97
2024-01-20T11:53:46.968Z,58.53
2024-01-20T11:56:19.401Z,60.67
2024-01-20T11:58:51.577Z,61.90
2024-01-20T12:01:23.990Z,61.13
2024-01-20T12:03:56.359Z,64.25
2024-01-20T12:06:28.685Z,57.08
2024-01-20T12:09:02.050Z,47.47
2024-01-20T12:11:35.553Z,51.83
2024-01-20T12:14:09.820Z,62.13
2024-01-20T12:16:42.218Z,48.15
2024-01-20T12:19:14.484Z,51.40
2024-01-20T12:21:47.264Z,54.92
2024-01-20T12:24:19.747Z,48.72
2024-01-20T12:26:51.973Z,49.40
2024-01-20T12:29:24.232Z,57.92
2024-01-20T12:32:00.502Z,54.95
2024-01-20T12:34:32.712Z,48.13
2024-01-20T12:37:06.219Z,46.88
2024-01-20T12:39:39.655Z,53.75
2024-01-20T12:42:11.898Z,57.45
2024-01-20T12:44:44.221Z,49.15
2024-01-20T12:47:16.403Z,45.55
2024-01-20T12:49:48.661Z,50.97
2024-01-20T12:52:22.651Z,40.58
2024-01-20T12:54:55.740Z,56.22
2024-01-20T12:57:27.989Z,51.97
2024-01-20T13:00:00.295Z,49.10
2024-01-20T13:02:32.868Z,54.15
2024-01-20T13:05:05.815Z,53.40
2024-01-20T13:07:37.981Z,49.80
2024-01-20T13:10:10.545Z,54.75
2024-01-20T13:12:42.683Z,51.45
2024-01-20T13:15:15.204Z,43.25
2024-01-20T13:17:47.662Z,49.97
2024-01-20T13:20:19.807Z,52.78
2024-01-20T13:22:51.933Z,47.85
2024-01-20T13:25:26.076Z,48.03
2024-01-20T13:27:58.823Z,46.40
2024-01-20T13:30:31.129Z,53.85
2024-01-20T13:33:03.557Z,47.90
2024-01-20T13:35:35.743Z,45.55
2024-01-20T13:38:07.946Z,46.33
2024-01-20T13:40:41.441Z,47.33
2024-01-20T13:43:13.751Z,50.45
2024-01-20T13:45:47.763Z,45.70
2024-01-20T13:48:20.340Z,50.78
2024-01-20T13:50:52.583Z,44.67
2024-01-20T13:56:16.349Z,47.22
2024-01-20T13:58:48.466Z,48.55
2024-01-20T14:01:24.048Z,47.22
2024-01-20T14:03:56.398Z,50.25
2024-01-20T14:06:28.679Z,49.85
2024-01-20T14:09:00.949Z,46.60
2024-01-20T14:11:34.501Z,45.47
2024-01-20T14:14:06.717Z,45.25
2024-01-20T14:16:38.895Z,45.92
2024-01-20T14:19:11.070Z,48.67
2024-01-20T14:21:44.678Z,51.58
2024-01-20T14:24:17.208Z,54.13
2024-01-20T14:26:49.856Z,53.38
2024-01-20T14:29:22.023Z,46.95
2024-01-20T14:31:54.865Z,53.58
2024-01-20T14:34:27.492Z,53.63
2024-01-20T14:36:59.905Z,49.53
2024-01-20T14:39:32.911Z,44.13
2024-01-20T14:42:05.399Z,52.25
2024-01-20T14:44:37.588Z,55.75
2024-01-20T14:47:10.411Z,52.25
2024-01-20T14:49:42.678Z,55.20
2024-01-20T14:52:15.368Z,58.38
2024-01-20T14:54:48.145Z,46.90
2024-01-20T14:57:20.864Z,48.70
2024-01-20T14:59:53.693Z,53.40
2024-01-20T15:02:25.845Z,50.17
2024-01-20T15:04:57.975Z,49.28
2024-01-20T15:07:34.676Z,51.00
2024-01-20T15:10:08.361Z,50.85
2024-01-20T15:12:40.706Z,53.17
2024-01-20T15:15:12.951Z,45.55
2024-01-20T15:17:45.204Z,48.88
2024-01-20T15:20:20.298Z,49.05
2024-01-20T15:22:58.103Z,53.60
2024-01-20T15:25:30.653Z,60.75
2024-01-20T15:28:03.256Z,54.03
2024-01-20T15:30:35.516Z,76.80
2024-01-20T15:33:10.391Z,58.50
2024-01-20T15:35:42.814Z,64.68
2024-01-20T15:38:15.652Z,58.10
2024-01-20T15:40:48.482Z,60.92
2024-01-20T15:43:22.360Z,59.55
2024-01-20T15:45:54.585Z,52.08
2024-01-20T15:48:26.959Z,58.85
2024-01-20T15:50:59.271Z,49.22
2024-01-20T15:53:31.681Z,58.80
2024-01-20T15:56:04.460Z,54.15
2024-01-20T15:58:36.969Z,64.55
2024-01-20T16:01:09.711Z,60.38
2024-01-20T16:03:42.268Z,55.55
2024-01-20T16:06:14.786Z,58.20
2024-01-20T16:08:47.562Z,62.22
2024-01-20T16:11:19.837Z,89.82
2024-01-20T16:13:52.006Z,68.63
2024-01-20T16:16:24.549Z,64.00
2024-01-20T16:18:57.148Z,61.13
2024-01-20T16:21:29.813Z,59.35
2024-01-20T16:24:02.391Z,60.15
2024-01-20T16:26:34.853Z,59.83
2024-01-20T16:29:07.146Z,66.53
2024-01-20T16:31:42.512Z,60.50
2024-01-20T16:34:16.016Z,63.70
2024-01-20T16:36:52.721Z,70.72
2024-01-20T16:39:25.173Z,74.32
2024-01-20T16:41:57.345Z,61.40
2024-01-20T16:44:29.457Z,60.35
2024-01-20T16:47:02.430Z,68.25
2024-01-20T16:49:34.782Z,67.20
2024-01-20T16:52:07.608Z,73.30
2024-01-20T16:54:39.973Z,60.33
2024-01-20T16:57:12.609Z,80.78
2024-01-20T16:59:44.847Z,65.95
2024-01-20T17:02:17.022Z,68.00
2024-01-20T17:04:50.130Z,77.95
2024-01-20T17:07:22.595Z,64.57
2024-01-20T17:09:54.759Z,64.43
2024-01-20T17:12:27.005Z,67.25
2024-01-20T17:14:59.284Z,67.55
2024-01-20T17:17:31.412Z,78.20
2024-01-20T17:20:05.289Z,87.60
2024-01-20T17:22:37.770Z,87.47
2024-01-20T17:25:11.204Z,101.68
2024-01-20T17:27:43.506Z,75.47
2024-01-20T17:30:16.926Z,83.03
2024-01-20T17:32:49.195Z,72.97
2024-01-20T17:35:21.808Z,84.72
2024-01-20T17:37:57.031Z,101.57
2024-01-20T17:40:29.248Z,87.25
2024-01-20T17:43:01.408Z,83.55
2024-01-20T17:45:33.607Z,77.80
2024-01-20T17:48:06.618Z,83.85
2024-01-20T17:50:38.825Z,81.25
2024-01-20T17:53:11.749Z,80.40
2024-01-20T17:55:44.224Z,78.78
2024-01-20T17:58:16.327Z,78.97
2024-01-20T18:00:48.611Z,74.18
2024-01-20T18:03:21.357Z,84.20
2024-01-20T18:05:54.025Z,70.93
2024-01-20T18:08:28.015Z,70.40
2024-01-20T18:11:00.465Z,73.75
2024-01-20T18:13:33.774Z,66.75
2024-01-20T18:16:06.599Z,65.90
2024-01-20T18:18:39.438Z,78.65
2024-01-20T18:21:13.098Z,68.00
2024-01-20T18:23:45.622Z,68.20
2024-01-20T18:26:17.845Z,69.18
2024-01-20T18:28:50.449Z,68.00
2024-01-20T18:31:22.988Z,64.38
2024-01-20T18:33:55.519Z,65.03
2024-01-20T18:36:27.791Z,59.50
2024-01-20T18:38:59.990Z,63.70
2024-01-20T18:41:32.288Z,74.53
2024-01-20T18:44:04.739Z,56.78
2024-01-20T18:46:36.974Z,61.33
2024-01-20T18:49:09.293Z,62.15
2024-01-20T18:51:41.676Z,61.20
2024-01-20T18:54:13.948Z,60.35
2024-01-20T18:56:48.674Z,63.22
2024-01-20T18:59:20.962Z,55.17
2024-01-20T19:01:53.131Z,61.35
2024-01-20T19:04:25.335Z,46.70
2024-01-20T19:06:57.696Z,50.33
2024-01-20T19:09:29.996Z,46.55
2024-01-20T19:12:02.350Z,42.78
2024-01-20T19:14:34.839Z,53.10
2024-01-20T19:17:14.505Z,46.28
2024-01-20T19:19:46.922Z,47.03
2024-01-20T19:22:21.410Z,39.03
2024-01-20T19:24:54.220Z,46.38
2024-01-20T19:27:27.583Z,55.97
2024-01-20T19:29:59.900Z,57.03
2024-01-20T19:32:32.095Z,47.95
2024-01-20T19:35:04.594Z,58.90
2024-01-20T19:37:36.898Z,39.45
2024-01-20T19:40:11.530Z,42.92
2024-01-20T19:42:43.995Z,40.72
2024-01-20T19:45:16.453Z,31.85
2024-01-20T19:47:48.720Z,35.90
2024-01-20T19:50:20.825Z,40.75
2024-01-20T19:52:54.078Z,36.33
2024-01-20T19:55:28.024Z,35.13
2024-01-20T19:58:00.288Z,31.45
2024-01-20T20:00:32.547Z,31.60
2024-01-20T20:03:05.288Z,30.83
2024-01-20T20:05:40.893Z,33.67
2024-01-20T20:08:14.663Z,32.00
2024-01-20T20:10:48.563Z,27.15
2024-01-20T20:13:21.875Z,32.28
2024-01-20T20:15:55.821Z,32.83
2024-01-20T20:18:31.381Z,35.83
2024-01-20T20:21:04.010Z,30.67
2024-01-20T20:23:37.566Z,25.73
2024-01-20T20:26:10.243Z,32.15
2024-01-20T20:28:42.551Z,22.85
2024-01-20T20:31:18.360Z,24.63
2024-01-20T20:33:51.495Z,29.08
2024-01-20T20:36:23.818Z,22.65
2024-01-20T20:38:56.281Z,26.13
2024-01-20T20:41:28.469Z,25.10
2024-01-20T20:44:01.124Z,28.65
2024-01-20T20:46:34.980Z,34.95
2024-01-20T20:49:08.058Z,24.45
2024-01-20T20:51:40.650Z,19.05
2024-01-20T20:54:12.891Z,19.25
2024-01-20T20:56:45.109Z,30.20
2024-01-20T20:59:19.121Z,16.77
2024-01-20T21:01:51.292Z,17.20
2024-01-20T21:04:23.940Z,21.38
2024-01-20T21:06:56.845Z,24.27
2024-01-20T21:09:29.138Z,22.23
2024-01-20T21:12:01.518Z,19.60
2024-01-20T21:14:33.726Z,15.93
2024-01-20T21:17:08.243Z,15.57
2024-01-20T21:19:40.786Z,13.52
2024-01-20T21:22:13.046Z,17.92
2024-01-20T21:24:45.779Z,14.95
2024-01-20T21:27:20.718Z,17.00
2024-01-20T21:29:53.479Z,15.10
2024-01-20T21:32:28.041Z,14.82
2024-01-20T21:35:00.568Z,19.02
2024-01-20T21:37:33.031Z,15.55
2024-01-20T21:40:07.408Z,17.55
2024-01-20T21:42:39.640Z,19.55
2024-01-20T21:45:11.919Z,14.32
2024-01-20T21:47:44.197Z,15.70
2024-01-20T21:50:16.592Z,20.17
2024-01-20T21:52:48.790Z,16.73
2024-01-20T21:55:20.995Z,23.88
2024-01-20T21:57:56.790Z,18.95
2024-01-20T22:00:30.583Z,22.05
2024-01-20T22:03:02.736Z,19.10
2024-01-20T22:05:35.013Z,23.17
2024-01-20T22:08:07.659Z,22.60
2024-01-20T22:10:42.383Z,16.38
2024-01-20T22:13:17.464Z,16.40
2024-01-20T22:15:49.726Z,14.35
2024-01-20T22:18:22.297Z,18.92
2024-01-20T22:20:57.377Z,14.32
2024-01-20T22:23:29.944Z,18.23
2024-01-20T22:26:02.423Z,17.67
2024-01-20T22:28:34.749Z,13.50
2024-01-20T22:31:06.963Z,16.92
2024-01-20T22:33:40.981Z,13.88
2024-01-20T22:36:13.305Z,17.73
2024-01-20T22:38:46.838Z,14.70
2024-01-20T22:41:19.765Z,14.05
2024-01-20T22:43:54.765Z,14.23
2024-01-20T22:46:28.265Z,15.57
2024-01-20T22:49:02.629Z,13.10
2024-01-20T22:51:35.285Z,13.60
2024-01-20T22:54:07.544Z,14.23
2024-01-20T22:56:40.071Z,17.85
2024-01-20T22:59:12.705Z,18.02
2024-01-20T23:01:45.596Z,15.40
2024-01-20T23:04:18.205Z,20.60
2024-01-20T23:06:52.421Z,14.60
2024-01-20T23:09:27.833Z,17.23
2024-01-20T23:12:00.162Z,13.32
2024-01-20T23:14:36.763Z,21.55
2024-01-20T23:17:08.959Z,18.65
2024-01-20T23:19:41.469Z,15.32
2024-01-20T23:22:13.810Z,11.98
2024-01-20T23:24:46.431Z,15.68
2024-01-20T23:27:22.337Z,12.43
2024-01-20T23:29:54.711Z,11.07
2024-01-20T23:32:27.063Z,12.40
2024-01-20T23:34:59.303Z,15.10
2024-01-20T23:37:31.496Z,17.70
2024-01-20T23:40:03.986Z,14.82
2024-01-20T23:42:37.097Z,11.85
2024-01-20T23:45:10.174Z,12.65
2024-01-20T23:47:42.385Z,12.13
2024-01-20T23:50:15.223Z,10.40
2024-01-20T23:52:47.543Z,13.02
2024-01-20T23:55:19.777Z,13.63
2024-01-20T23:57:51.956Z,17.17
